KSBD/SBD METAR and TAF weather

Enter ICAO airport designator
Station Type Date Time Source
KSBD METAR 2021/09/28 05:20 UTC NOAA

KSBD 280520Z AUTO 25005KT 10SM OVC023 18/13 A3002 RMK AO2 T01770130


Station Type Date Time Source
KSBD Decoded METAR 2021/09/28 05:20 UTC NOAA

Norton Air Force Base / San Bern, CA, United States (KSBD) 34-06N 117-14W
Sep 28, 2021 - 01:20 AM EDT / 2021.09.28 0520 UTC
Wind: from the WSW (250 degrees) at 6 MPH (5 KT):0
Visibility: 10 mile(s):0
Sky conditions: overcast
Temperature: 63.9 F (17.7 C)
Dew Point: 55.4 F (13.0 C)
Relative Humidity: 73%
Pressure (altimeter): 30.02 in. Hg (1016 hPa)
ob: KSBD 280520Z AUTO 25005KT 10SM OVC023 18/13 A3002 RMK AO2 T01770130
cycle: 5

Station Type Date Time Source
KSBD TAF 2021/09/28 06:22 UTC NOAA

TAF KSBD 280520Z 2806/2906 24005KT P6SM BKN025
FM280800 VRB04KT P6SM OVC015
FM281700 25005KT P6SM BKN022
FM282000 25010KT P6SM SKC
FM290400 VRB04KT P6SM SCT020

Example: see airport list